Time;durP1;ratioP1;P1;durP2;ratioP2;P2;SDS_P1;SDS_P2;PMS_P1;PMS_P2;Temp;Humidity;BMP_temperature;BMP_pressure;BME280_temperature;BME280_humidity;BME280_pressure;Samples;Min_cycle;Max_cycle;Signal;HPM_P1;HPM_P2
2022/11/14 00:00:00;;;;;;;6.63;3.95;;;;;;;7.18;90.11;101803.78;10544675;28;20040;-80
2022/11/14 00:05:20;;;;;;;4.85;2.70;;;;;;;7.20;90.07;101787.38;10538001;28;20048;-81
2022/11/14 00:10:40;;;;;;;;;;;;;;;7.20;89.97;101796.94;10539460;28;20063;-82
2022/11/14 00:16:01;;;;;;;4.35;2.20;;;;;;;7.16;90.05;101780.28;10542016;28;19959;-81
2022/11/14 00:21:21;;;;;;;4.90;3.28;;;;;;;7.13;90.32;101789.63;10534503;28;20040;-80
2022/11/14 00:26:41;;;;;;;5.93;2.72;;;;;;;7.11;90.23;101780.88;10548862;28;20044;-81
2022/11/14 00:32:01;;;;;;;9.80;3.28;;;;;;;7.14;90.15;101787.09;10539306;28;20044;-82
2022/11/14 00:37:21;;;;;;;5.13;3.70;;;;;;;7.02;90.00;101777.00;10557108;28;20040;-81
2022/11/14 00:42:42;;;;;;;6.00;2.67;;;;;;;7.01;90.03;101776.94;10554289;28;20408;-81
2022/11/14 00:48:02;;;;;;;6.40;3.58;;;;;;;6.89;90.12;101770.34;10555151;28;20081;-82
2022/11/14 00:53:22;;;;;;;6.25;3.60;;;;;;;6.87;90.23;101766.75;10554520;28;20421;-81
2022/11/14 00:58:42;;;;;;;4.68;2.97;;;;;;;6.85;90.30;101759.69;10553746;28;20074;-81
2022/11/14 01:04:02;;;;;;;5.57;3.35;;;;;;;6.76;90.29;101752.34;10553254;28;20028;-81
2022/11/14 01:09:22;;;;;;;6.55;2.88;;;;;;;6.73;90.49;101747.88;10536058;28;20036;-82
2022/11/14 01:14:43;;;;;;;;;;;;;;;6.74;90.44;101743.56;10511280;28;20032;-79
2022/11/14 01:20:04;;;;;;;6.22;3.03;;;;;;;6.67;90.59;101749.28;10511593;28;19940;-82
2022/11/14 01:25:24;;;;;;;4.68;3.03;;;;;;;6.60;90.41;101753.28;10548966;28;20036;-81
2022/11/14 01:30:44;;;;;;;4.45;2.85;;;;;;;6.54;90.48;101740.91;10558448;28;20040;-81
2022/11/14 01:36:06;;;;;;;9.23;4.28;;;;;;;6.43;90.36;101730.78;10559921;28;20060;-81
2022/11/14 01:41:26;;;;;;;6.97;2.80;;;;;;;6.33;90.55;101708.63;10557009;28;20041;-81
2022/11/14 01:46:52;;;;;;;6.68;4.18;;;;;;;6.37;90.56;101694.94;10531672;28;20044;-81
2022/11/14 01:52:16;;;;;;;4.22;2.58;;;;;;;6.33;90.46;101693.00;10517601;28;20045;-81
2022/11/14 01:57:44;;;;;;;8.68;2.83;;;;;;;6.27;90.43;101695.31;10520885;28;20051;-80
2022/11/14 02:03:04;;;;;;;5.28;2.97;;;;;;;6.18;90.61;101675.84;10514111;28;20052;-81
2022/11/14 02:08:25;;;;;;;4.75;2.00;;;;;;;6.21;90.50;101667.28;10518293;28;20044;-81
2022/11/14 02:13:45;;;;;;;6.97;2.58;;;;;;;6.24;90.59;101669.16;10520008;28;20428;-81
2022/11/14 02:19:06;;;;;;;3.97;2.60;;;;;;;6.18;90.46;101656.72;10520285;28;20048;-82
2022/11/14 02:24:26;;;;;;;2.38;2.08;;;;;;;6.07;90.67;101651.00;10519787;28;20040;-81
2022/11/14 02:29:46;;;;;;;5.00;3.03;;;;;;;6.02;90.61;101642.09;10518475;28;20074;-81
2022/11/14 02:35:06;;;;;;;6.03;2.22;;;;;;;5.93;90.41;101631.19;10524655;28;20108;-81
2022/11/14 02:40:26;;;;;;;3.97;2.75;;;;;;;5.98;90.64;101625.44;10558279;28;20048;-81
2022/11/14 02:45:47;;;;;;;4.05;2.65;;;;;;;5.93;90.71;101607.78;10539647;28;20040;-81
2022/11/14 02:51:07;;;;;;;4.95;2.78;;;;;;;5.94;90.68;101596.59;10531421;28;20063;-81
2022/11/14 02:56:27;;;;;;;5.13;2.70;;;;;;;5.92;91.00;101611.22;10549231;28;20044;-81
2022/11/14 03:01:48;;;;;;;4.78;3.30;;;;;;;5.92;90.76;101611.22;10536272;28;20049;-82
2022/11/14 03:07:08;;;;;;;4.60;2.72;;;;;;;5.91;90.82;101614.63;10537931;28;20075;-81
2022/11/14 03:12:29;;;;;;;2.60;2.40;;;;;;;5.92;90.78;101604.31;10554363;28;20040;-82
2022/11/14 03:17:49;;;;;;;6.47;3.17;;;;;;;5.96;90.73;101603.66;10550478;28;20043;-80
2022/11/14 03:23:09;;;;;;;6.53;3.92;;;;;;;5.93;90.78;101597.41;10550067;28;20032;-81
2022/11/14 03:28:29;;;;;;;3.88;3.03;;;;;;;5.91;90.72;101578.25;10500496;28;20040;-81
2022/11/14 03:33:50;;;;;;;3.80;2.63;;;;;;;5.86;90.76;101566.75;10539294;28;20036;-81
2022/11/14 03:39:10;;;;;;;3.47;2.65;;;;;;;5.87;90.82;101572.03;10545541;28;20036;-80
2022/11/14 03:44:30;;;;;;;5.07;3.60;;;;;;;5.89;90.70;101561.69;10545797;28;20040;-81
2022/11/14 03:49:50;;;;;;;5.00;3.55;;;;;;;5.83;90.73;101557.09;10544364;28;20044;-81
2022/11/14 03:55:10;;;;;;;2.20;1.58;;;;;;;5.81;90.68;101561.28;10542095;28;20040;-81
2022/11/14 04:00:31;;;;;;;16.13;15.00;;;;;;;5.82;90.57;101553.59;10519058;28;20115;-80
2022/11/14 04:05:51;;;;;;;6.10;5.50;;;;;;;5.74;90.45;101560.13;10487734;28;20040;-81
2022/11/14 04:11:11;;;;;;;4.25;3.28;;;;;;;5.65;90.33;101562.28;10516873;28;20476;-81
2022/11/14 04:16:31;;;;;;;18.90;16.95;;;;;;;5.66;90.32;101567.53;10542933;28;20599;-81
2022/11/14 04:21:51;;;;;;;4.70;3.20;;;;;;;5.68;90.09;101565.03;10499784;28;20044;-81
2022/11/14 04:27:12;;;;;;;2.95;2.20;;;;;;;5.67;90.04;101558.03;10500484;28;20040;-81
2022/11/14 04:32:32;;;;;;;2.53;1.92;;;;;;;5.64;90.07;101548.41;10498239;28;20045;-81
2022/11/14 04:37:53;;;;;;;2.80;2.22;;;;;;;5.60;90.04;101542.94;10500392;28;20037;-81
2022/11/14 04:43:13;;;;;;;3.22;2.10;;;;;;;5.61;89.83;101531.75;10503008;28;20036;-81
2022/11/14 04:48:33;;;;;;;13.43;3.30;;;;;;;5.60;89.96;101530.88;10506492;28;20429;-81
2022/11/14 04:53:53;;;;;;;2.92;1.45;;;;;;;5.60;89.97;101532.56;10499550;28;20032;-80
2022/11/14 04:59:13;;;;;;;4.32;2.58;;;;;;;5.59;90.14;101517.81;10541985;28;20056;-81
2022/11/14 05:04:39;;;;;;;6.55;3.25;;;;;;;5.62;89.86;101508.44;10543168;28;20116;-81
2022/11/14 05:10:00;;;;;;;4.10;2.72;;;;;;;5.60;89.89;101507.47;10501976;28;20036;-81
2022/11/14 05:15:20;;;;;;;3.55;2.47;;;;;;;5.61;90.09;101495.38;10533194;28;20032;-81
2022/11/14 05:20:40;;;;;;;;;;;;;;;5.63;90.19;101493.72;10550993;28;20040;-80
2022/11/14 05:26:02;;;;;;;4.55;3.38;;;;;;;5.62;90.13;101502.34;10547771;28;19920;-81
2022/11/14 05:31:22;;;;;;;5.05;3.65;;;;;;;5.62;90.25;101494.56;10547454;28;20036;-79
2022/11/14 05:36:43;;;;;;;9.10;8.18;;;;;;;5.61;89.93;101477.19;10547509;28;20067;-81
2022/11/14 05:42:03;;;;;;;3.95;2.83;;;;;;;5.61;90.24;101477.19;10549887;28;20040;-81
2022/11/14 05:47:23;;;;;;;4.28;2.53;;;;;;;5.55;90.25;101482.09;10535294;28;20064;-80
2022/11/14 05:52:44;;;;;;;3.88;2.50;;;;;;;5.48;90.56;101474.00;10510467;28;20075;-81
2022/11/14 05:58:04;;;;;;;5.88;4.07;;;;;;;5.48;90.33;101458.41;10536902;28;20052;-80
2022/11/14 06:03:24;;;;;;;4.22;3.13;;;;;;;5.46;90.42;101457.47;10543075;28;20040;-82
2022/11/14 06:08:45;;;;;;;2.00;1.75;;;;;;;5.42;90.46;101455.53;10532721;28;20044;-82
2022/11/14 06:14:05;;;;;;;;;;;;;;;5.36;90.40;101455.22;10558577;28;20056;-81
2022/11/14 06:19:30;;;;;;;4.03;2.70;;;;;;;5.28;90.48;101449.66;10557037;28;19943;-81
2022/11/14 06:24:50;;;;;;;3.17;2.47;;;;;;;5.30;90.54;101453.22;10555512;28;20044;-80
2022/11/14 06:30:11;;;;;;;6.30;2.72;;;;;;;5.27;90.60;101460.84;10551118;28;20036;-84
2022/11/14 06:35:32;;;;;;;3.25;2.35;;;;;;;5.34;90.74;101459.44;10552822;28;20036;-81
2022/11/14 06:40:59;;;;;;;2.42;2.22;;;;;;;5.35;90.71;101465.53;10546665;28;20044;-81
2022/11/14 06:46:21;;;;;;;5.13;3.63;;;;;;;5.38;90.71;101465.69;10509161;28;20040;-81
2022/11/14 06:51:41;;;;;;;6.70;2.53;;;;;;;5.42;90.59;101460.72;10514717;28;20040;-81
2022/11/14 06:57:01;;;;;;;6.47;4.28;;;;;;;5.37;90.67;101469.09;10521878;28;20104;-81
2022/11/14 07:02:21;;;;;;;5.88;2.67;;;;;;;5.37;90.69;101475.16;10526423;28;20056;-81
2022/11/14 07:07:42;;;;;;;3.72;2.80;;;;;;;5.35;90.79;101476.81;10559077;28;20040;-81
2022/11/14 07:13:02;;;;;;;4.28;2.03;;;;;;;5.34;90.70;101485.41;10524189;28;20024;-81
2022/11/14 07:18:22;;;;;;;5.00;3.38;;;;;;;5.33;90.69;101486.25;10564722;28;20040;-81
2022/11/14 07:23:43;;;;;;;;;;;;;;;5.43;90.71;101474.56;10526821;28;20616;-81
2022/11/14 07:29:03;;;;;;;8.43;5.00;;;;;;;5.33;90.71;101473.25;10568325;28;19920;-82
2022/11/14 07:34:23;;;;;;;4.65;3.33;;;;;;;5.37;90.84;101477.75;10563695;28;20040;-81
2022/11/14 07:39:44;;;;;;;5.78;3.97;;;;;;;5.36;90.64;101472.50;10526818;28;20032;-81
2022/11/14 07:45:05;;;;;;;5.53;3.00;;;;;;;5.31;90.90;101480.06;10555096;28;20052;-82
2022/11/14 07:50:27;;;;;;;2.63;2.22;;;;;;;5.42;90.84;101471.09;10566362;28;20051;-81
2022/11/14 07:55:47;;;;;;;4.70;3.03;;;;;;;5.38;91.00;101469.16;10564741;28;20040;-80
2022/11/14 08:01:10;;;;;;;3.35;1.98;;;;;;;5.43;90.72;101466.78;10547274;28;20363;-80
2022/11/14 08:06:30;;;;;;;5.28;3.15;;;;;;;5.59;90.87;101453.72;10526908;28;20036;-82
2022/11/14 08:11:50;;;;;;;4.05;3.15;;;;;;;5.62;90.75;101455.59;10543565;28;20048;-81
2022/11/14 08:17:11;;;;;;;3.55;2.70;;;;;;;5.68;90.68;101450.69;10563330;28;20083;-81
2022/11/14 08:22:31;;;;;;;4.75;3.22;;;;;;;5.73;90.42;101450.91;10554916;28;20044;-81
2022/11/14 08:27:52;;;;;;;5.10;3.78;;;;;;;5.78;90.51;101447.72;10517426;28;20120;-82
2022/11/14 08:33:12;;;;;;;;;;;;;;;5.81;90.26;101453.03;10561313;28;20032;-81
2022/11/14 08:38:33;;;;;;;6.95;3.25;;;;;;;5.93;90.29;101434.53;10542889;28;19928;-82
2022/11/14 08:43:53;;;;;;;;;;;;;;;5.84;90.08;101440.19;10514751;28;20064;-81
2022/11/14 08:49:13;;;;;;;7.93;5.55;;;;;;;5.86;89.89;101440.25;10550937;28;19963;-81
2022/11/14 08:54:33;;;;;;;4.40;3.17;;;;;;;5.90;89.85;101430.88;10550855;28;20044;-81
2022/11/14 08:59:54;;;;;;;4.97;2.33;;;;;;;5.89;90.12;101429.13;10520005;28;20040;-81
2022/11/14 09:05:14;;;;;;;6.88;3.88;;;;;;;5.96;89.93;101423.38;10546230;28;20258;-82
2022/11/14 09:10:36;;;;;;;7.05;3.47;;;;;;;5.94;89.87;101422.41;10551800;28;20478;-81
2022/11/14 09:15:56;;;;;;;2.10;1.73;;;;;;;6.02;89.69;101421.13;10563779;28;20045;-81
2022/11/14 09:21:17;;;;;;;;;;;;;;;6.05;89.40;101422.94;10530625;28;20040;-82
2022/11/14 09:26:37;;;;;;;2.90;2.15;;;;;;;6.01;88.98;101422.81;10522896;28;19963;-82
2022/11/14 09:31:58;;;;;;;8.65;5.22;;;;;;;6.01;89.03;101419.31;10531900;28;20040;-82
2022/11/14 09:37:18;;;;;;;3.63;2.65;;;;;;;6.06;88.87;101416.94;10559233;28;20099;-81
2022/11/14 09:43:03;;;;;;;3.45;2.58;;;;;;;6.19;88.81;101417.53;10540387;28;20029;-81
2022/11/14 09:48:28;;;;;;;5.40;2.40;;;;;;;6.26;88.67;101416.13;10518387;28;20057;-81
2022/11/14 09:53:59;;;;;;;7.93;4.13;;;;;;;6.60;88.47;101406.31;10511155;28;20041;-79
2022/11/14 09:59:19;;;;;;;3.95;2.65;;;;;;;6.87;88.33;101407.47;10512436;28;20040;-80
2022/11/14 10:05:03;;;;;;;4.63;3.25;;;;;;;7.33;87.65;101392.84;10502628;28;20041;-81
2022/11/14 10:10:48;;;;;;;8.23;4.28;;;;;;;7.39;86.80;101400.91;10527266;28;20060;-82
2022/11/14 10:16:28;;;;;;;7.38;4.82;;;;;;;7.41;86.52;101396.63;10515225;28;20045;-82
2022/11/14 10:22:29;;;;;;;6.60;3.53;;;;;;;7.50;86.07;101393.50;10533027;28;20308;-82
2022/11/14 10:28:10;;;;;;;7.13;4.33;;;;;;;7.49;85.50;101378.72;10535124;28;20076;-78
2022/11/14 10:33:50;;;;;;;4.90;2.60;;;;;;;7.84;85.51;101373.97;10529252;28;20037;-81
2022/11/14 10:39:22;;;;;;;7.43;4.80;;;;;;;8.02;84.92;101370.28;10541480;28;20056;-81
2022/11/14 10:45:02;;;;;;;5.40;4.15;;;;;;;7.49;84.04;101368.31;10549056;28;20139;-80
2022/11/14 10:50:32;;;;;;;7.70;4.15;;;;;;;7.40;84.18;101347.97;10558648;28;20100;-82
2022/11/14 10:55:54;;;;;;;13.68;5.65;;;;;;;7.43;84.26;101341.97;10542653;28;20044;-81
2022/11/14 11:01:48;;;;;;;5.35;3.47;;;;;;;7.65;84.25;101333.25;10567427;28;20044;-81
2022/11/14 11:07:09;;;;;;;4.15;2.50;;;;;;;7.90;84.00;101318.56;10557818;28;20044;-81
2022/11/14 11:12:49;;;;;;;7.28;3.60;;;;;;;8.04;83.47;101312.09;10529019;28;20044;-81
2022/11/14 11:18:29;;;;;;;5.88;3.65;;;;;;;8.30;83.08;101299.06;10527963;28;20072;-81
2022/11/14 11:23:55;;;;;;;4.32;2.70;;;;;;;8.26;82.56;101299.81;10528907;28;20104;-81
2022/11/14 11:29:17;;;;;;;7.70;3.42;;;;;;;8.40;82.32;101284.63;10534290;28;20064;-80
2022/11/14 11:34:37;;;;;;;7.68;4.13;;;;;;;8.45;81.89;101288.31;10563214;28;20041;-82
2022/11/14 11:40:04;;;;;;;5.65;3.20;;;;;;;8.58;81.53;101287.00;10563029;28;20040;-81
2022/11/14 11:45:27;;;;;;;6.47;3.67;;;;;;;8.61;81.02;101268.84;10529775;28;20041;-81
2022/11/14 11:50:48;;;;;;;6.97;3.75;;;;;;;8.46;81.08;101274.44;10529022;28;20049;-81
2022/11/14 11:56:14;;;;;;;6.40;4.00;;;;;;;8.32;81.14;101290.47;10515747;28;20029;-80
2022/11/14 12:01:34;;;;;;;11.18;3.38;;;;;;;8.03;80.92;101278.13;10530662;28;20044;-81
2022/11/14 12:07:19;;;;;;;10.90;3.88;;;;;;;7.99;81.33;101271.94;10535991;28;20045;-81
2022/11/14 12:12:42;;;;;;;5.85;3.80;;;;;;;8.05;81.50;101266.06;10534656;28;20037;-81
2022/11/14 12:18:21;;;;;;;15.25;4.60;;;;;;;7.91;81.34;101274.28;10535647;28;20052;-81
2022/11/14 12:23:53;;;;;;;5.35;3.78;;;;;;;8.03;81.45;101252.06;10534300;28;20104;-80
2022/11/14 12:29:45;;;;;;;8.60;3.92;;;;;;;7.99;81.19;101243.25;10532974;28;20441;-81
2022/11/14 12:35:07;;;;;;;;;;;;;;;8.02;81.36;101265.94;10567222;28;20036;-80
2022/11/14 12:40:47;;;;;;;11.38;4.28;;;;;;;7.91;81.27;101242.97;10534221;28;19924;-81
2022/11/14 12:46:11;;;;;;;11.13;3.60;;;;;;;7.66;81.33;101253.38;10528757;28;20063;-83
2022/11/14 12:51:32;;;;;;;7.10;4.40;;;;;;;7.65;82.00;101234.22;10546862;28;20052;-81
2022/11/14 12:57:00;;;;;;;6.95;3.95;;;;;;;7.67;81.85;101237.78;10566473;28;20048;-81
2022/11/14 13:02:44;;;;;;;5.55;2.85;;;;;;;7.61;82.00;101230.63;10540853;28;20040;-81
2022/11/14 13:08:41;;;;;;;2.92;1.98;;;;;;;7.51;82.22;101238.94;10565758;28;20111;-81
2022/11/14 13:25:23;;;;;;;5.70;2.65;;;;;;;7.42;82.60;101217.75;10522026;28;20406;-81
2022/11/14 13:31:25;;;;;;;4.47;2.88;;;;;;;7.48;82.66;101214.50;10538693;28;20042;-79
2022/11/14 13:37:04;;;;;;;2.35;2.03;;;;;;;7.38;82.63;101197.63;10492835;28;20044;-81
2022/11/14 13:42:42;;;;;;;4.72;2.72;;;;;;;7.33;82.81;101193.97;10521428;28;20060;-81
2022/11/14 13:48:16;;;;;;;4.10;2.75;;;;;;;7.30;82.95;101188.66;10522298;28;20041;-81
2022/11/14 13:53:39;;;;;;;4.68;2.38;;;;;;;7.18;83.08;101189.97;10522958;28;20040;-82
2022/11/14 13:59:18;;;;;;;5.30;2.15;;;;;;;7.06;83.09;101184.31;10521623;28;20087;-82
2022/11/14 14:04:59;;;;;;;3.60;2.30;;;;;;;7.06;83.39;101176.50;10550856;28;20220;-82
2022/11/14 14:10:31;;;;;;;7.00;3.75;;;;;;;7.05;83.58;101180.78;10525302;28;20052;-80
2022/11/14 14:16:09;;;;;;;7.03;3.60;;;;;;;6.99;83.82;101164.06;10521278;28;20049;-82
2022/11/14 14:21:51;;;;;;;4.13;2.50;;;;;;;6.95;84.07;101165.69;10520680;28;20040;-82
2022/11/14 14:27:54;;;;;;;6.85;3.22;;;;;;;6.89;84.19;101157.59;10556198;28;20044;-82
2022/11/14 14:33:14;;;;;;;5.35;4.13;;;;;;;6.82;84.59;101163.44;10569499;28;20040;-82
2022/11/14 14:38:35;;;;;;;18.75;7.72;;;;;;;6.85;84.86;101154.00;10566828;28;20079;-80
2022/11/14 14:43:55;;;;;;;5.88;3.20;;;;;;;6.78;84.91;101162.41;10564216;28;20040;-80
2022/11/14 14:49:23;;;;;;;;;;;;;;;6.66;85.23;101146.31;10530162;28;20044;-79
2022/11/14 14:54:53;;;;;;;2.33;1.92;;;;;;;6.59;85.46;101145.22;10512962;28;20215;-80
2022/11/14 15:00:25;;;;;;;3.85;1.98;;;;;;;6.53;85.60;101148.44;10507733;28;20037;-80
2022/11/14 15:05:45;;;;;;;5.80;3.92;;;;;;;6.48;85.86;101149.97;10505498;28;20049;-79
2022/11/14 15:11:06;;;;;;;;;;;;;;;6.45;86.04;101146.38;10526443;28;20048;-78
2022/11/14 15:16:28;;;;;;;5.65;2.17;;;;;;;6.39;86.27;101136.59;10518976;28;20324;-80
2022/11/14 15:22:02;;;;;;;4.43;2.80;;;;;;;6.27;86.53;101133.53;10514989;28;20041;-80
2022/11/14 15:27:22;;;;;;;5.03;2.58;;;;;;;6.22;86.72;101127.25;10514193;28;20533;-79
2022/11/14 15:32:50;;;;;;;6.90;3.92;;;;;;;6.16;86.96;101120.97;10519456;28;20060;-76
2022/11/14 15:38:10;;;;;;;6.50;4.15;;;;;;;6.06;87.04;101116.22;10539364;28;20064;-80
2022/11/14 15:43:52;;;;;;;2.85;2.30;;;;;;;5.99;87.34;101117.69;10512788;28;20064;-80
2022/11/14 15:49:24;;;;;;;4.03;2.67;;;;;;;5.90;87.25;101135.47;10464927;28;20041;-79
2022/11/14 15:54:44;;;;;;;4.05;2.10;;;;;;;5.89;87.78;101127.63;10506861;28;20589;-79
2022/11/14 16:00:04;;;;;;;3.50;2.30;;;;;;;5.81;87.94;101115.19;10464823;28;20040;-79
2022/11/14 16:05:27;;;;;;;4.22;3.22;;;;;;;5.77;88.08;101104.59;10539540;28;20036;-81
2022/11/14 16:10:48;;;;;;;4.75;3.15;;;;;;;5.63;88.24;101107.50;10515326;28;20055;-82
2022/11/14 16:16:08;;;;;;;4.72;1.88;;;;;;;5.57;88.58;101101.16;10511599;28;20472;-80
2022/11/14 16:21:28;;;;;;;4.40;3.15;;;;;;;5.49;88.70;101090.44;10550231;28;20040;-79
2022/11/14 16:26:49;;;;;;;2.42;1.63;;;;;;;5.42;88.89;101091.91;10526704;28;20036;-80
2022/11/14 16:32:09;;;;;;;;;;;;;;;5.45;89.23;101094.63;10520659;28;20080;-80
2022/11/14 16:37:29;;;;;;;5.03;3.03;;;;;;;5.38;89.38;101081.31;10526072;28;19927;-81
2022/11/14 16:42:52;;;;;;;3.17;2.55;;;;;;;5.36;89.62;101086.44;10551746;28;20044;-80
2022/11/14 16:48:13;;;;;;;8.32;4.50;;;;;;;5.39;89.92;101094.38;10557283;28;20040;-81
2022/11/14 16:53:33;;;;;;;3.50;2.50;;;;;;;5.30;89.98;101089.66;10509512;28;20036;-83
2022/11/14 16:58:54;;;;;;;3.53;2.47;;;;;;;5.33;90.16;101088.91;10523235;28;20064;-83
2022/11/14 17:04:14;;;;;;;12.05;9.07;;;;;;;5.37;90.32;101089.91;10540334;28;20036;-82
2022/11/14 17:09:34;;;;;;;6.28;2.65;;;;;;;5.44;90.50;101082.44;10547699;28;20055;-82
2022/11/14 17:14:54;;;;;;;2.13;1.92;;;;;;;5.45;90.53;101079.03;10559108;28;20036;-81
2022/11/14 17:20:15;;;;;;;3.90;2.53;;;;;;;5.48;90.56;101067.91;10504107;28;20413;-80
2022/11/14 17:25:35;;;;;;;2.53;1.65;;;;;;;5.49;90.39;101065.38;10473399;28;20820;-79
2022/11/14 17:30:55;;;;;;;2.53;2.03;;;;;;;5.52;90.59;101064.59;10485535;28;20420;-79
2022/11/14 17:36:15;;;;;;;4.18;2.58;;;;;;;5.48;90.40;101055.78;10472575;28;20040;-81
2022/11/14 17:41:36;;;;;;;6.10;5.13;;;;;;;5.41;90.39;101042.50;10477842;28;20087;-79
2022/11/14 17:46:56;;;;;;;3.55;2.60;;;;;;;5.35;90.49;101044.84;10506458;28;20544;-79
2022/11/14 17:52:16;;;;;;;2.55;2.08;;;;;;;5.42;90.42;101047.75;10526485;28;20505;-79
2022/11/14 17:57:36;;;;;;;4.68;2.85;;;;;;;5.38;90.74;101037.16;10478948;28;20039;-80
2022/11/14 18:02:56;;;;;;;1.33;1.20;;;;;;;5.43;90.55;101038.25;10488061;28;20040;-81
2022/11/14 18:08:16;;;;;;;4.38;3.05;;;;;;;5.48;90.61;101042.81;10510516;28;20049;-79
2022/11/14 18:13:36;;;;;;;2.88;2.40;;;;;;;5.45;90.57;101033.97;10512599;28;20040;-80
2022/11/14 18:19:46;;;;;;;4.43;2.17;;;;;;;5.38;90.46;101035.44;10479419;28;20060;-79
2022/11/14 18:26:25;;;;;;;2.78;2.22;;;;;;;5.32;90.64;101036.06;10485164;28;20209;-79
2022/11/14 18:32:59;;;;;;;2.55;2.22;;;;;;;5.23;90.63;101027.91;10479364;28;20041;-79
2022/11/14 18:38:44;;;;;;;4.22;2.58;;;;;;;5.25;90.73;101022.78;10497433;28;20044;-79
2022/11/14 18:44:04;;;;;;;;;;;;;;;5.23;90.77;101006.25;10480188;28;20033;-79
2022/11/14 18:49:27;;;;;;;2.45;1.10;;;;;;;5.18;90.83;101005.16;10489597;28;19928;-80
2022/11/14 18:54:47;;;;;;;3.75;2.20;;;;;;;5.18;90.71;101008.66;10482205;28;20033;-80
2022/11/14 19:00:08;;;;;;;3.67;2.63;;;;;;;5.17;90.94;101006.88;10488197;28;20070;-80
2022/11/14 19:05:28;;;;;;;4.55;3.17;;;;;;;5.19;90.93;100986.16;10491113;28;20072;-80
2022/11/14 19:10:48;;;;;;;4.15;2.20;;;;;;;5.12;90.93;100990.22;10519281;28;20048;-80
2022/11/14 19:16:08;;;;;;;2.20;1.75;;;;;;;5.25;91.15;101002.00;10503547;28;20413;-78
2022/11/14 19:21:29;;;;;;;2.05;1.40;;;;;;;5.30;91.45;100993.59;10474794;28;20421;-80
2022/11/14 19:26:49;;;;;;;4.53;3.55;;;;;;;5.41;91.43;100988.84;10479485;28;20040;-80
2022/11/14 19:32:09;;;;;;;4.63;3.33;;;;;;;5.51;91.45;100971.03;10479983;28;20041;-80
2022/11/14 19:37:30;;;;;;;2.17;1.80;;;;;;;5.55;91.35;100962.53;10482658;28;20044;-79
2022/11/14 19:42:52;;;;;;;5.57;2.55;;;;;;;5.64;91.41;100957.69;10478436;28;20056;-79
2022/11/14 19:48:12;;;;;;;3.97;2.50;;;;;;;5.76;91.55;100952.09;10475105;28;20131;-80
2022/11/14 19:53:33;;;;;;;5.43;3.15;;;;;;;5.84;91.56;100948.13;10491115;28;20514;-80
2022/11/14 19:58:55;;;;;;;5.10;2.80;;;;;;;5.92;91.44;100940.59;10521371;28;20040;-80
2022/11/14 20:04:15;;;;;;;4.45;3.15;;;;;;;5.97;91.37;100939.09;10528301;28;20101;-80
2022/11/14 20:09:35;;;;;;;4.03;2.58;;;;;;;6.03;91.54;100933.25;10528217;28;20039;-80
2022/11/14 20:14:55;;;;;;;3.80;2.38;;;;;;;6.13;91.13;100933.66;10514809;28;20040;-81
2022/11/14 20:20:15;;;;;;;6.15;2.65;;;;;;;6.23;91.17;100926.19;10527373;28;20040;-80
2022/11/14 20:25:36;;;;;;;4.80;2.78;;;;;;;6.22;90.75;100929.63;10513970;28;20040;-80
2022/11/14 20:31:06;;;;;;;5.07;3.05;;;;;;;6.24;90.95;100918.44;10498860;28;20638;-79
2022/11/14 20:36:26;;;;;;;3.38;2.38;;;;;;;6.18;90.74;100911.31;10527743;28;20032;-79
2022/11/14 20:41:54;;;;;;;2.72;1.92;;;;;;;6.21;90.71;100912.25;10526233;28;20036;-79
2022/11/14 20:47:16;;;;;;;4.75;3.00;;;;;;;6.18;90.56;100903.53;10527019;28;20036;-79
2022/11/14 20:52:37;;;;;;;3.38;2.13;;;;;;;6.21;90.54;100905.31;10526682;28;20127;-80
2022/11/14 20:57:57;;;;;;;3.47;2.40;;;;;;;6.28;90.54;100893.44;10529263;28;20044;-80
2022/11/14 21:03:18;;;;;;;5.68;3.33;;;;;;;6.28;90.67;100896.91;10510620;28;20032;-79
2022/11/14 21:08:39;;;;;;;4.53;2.60;;;;;;;6.33;90.58;100897.97;10524607;28;20521;-79
2022/11/14 21:14:00;;;;;;;4.20;2.60;;;;;;;6.33;90.40;100877.16;10525758;28;20523;-79
2022/11/14 21:19:21;;;;;;;;;;;;;;;6.36;90.34;100871.19;10526401;28;20048;-78
2022/11/14 21:24:41;;;;;;;3.88;2.63;;;;;;;6.39;90.11;100878.22;10476392;28;19925;-79
2022/11/14 21:30:02;;;;;;;6.68;3.58;;;;;;;6.37;90.24;100878.16;10484788;28;20036;-79
2022/11/14 21:35:21;;;;;;;5.15;2.63;;;;;;;6.44;90.24;100864.56;10484684;28;20064;-80
2022/11/14 21:40:41;;;;;;;6.00;3.92;;;;;;;6.46;90.09;100869.81;10485461;28;20091;-79
2022/11/14 21:46:04;;;;;;;4.50;2.45;;;;;;;6.49;89.82;100868.19;10492951;28;20041;-78
2022/11/14 21:51:26;;;;;;;6.68;2.70;;;;;;;6.46;90.03;100868.09;10524725;28;20044;-79
2022/11/14 21:56:46;;;;;;;2.55;1.73;;;;;;;6.48;90.01;100866.41;10533178;28;20131;-79
2022/11/14 22:07:50;;;;;;;3.28;1.77;;;;;;;6.49;89.91;100857.78;10486412;28;20032;-79
2022/11/14 22:13:10;;;;;;;6.22;3.38;;;;;;;6.54;89.99;100855.34;10491511;28;20037;-79
2022/11/14 22:18:30;;;;;;;2.03;1.65;;;;;;;6.54;90.04;100851.03;10531590;28;20040;-78
2022/11/14 22:23:53;;;;;;;4.90;2.92;;;;;;;6.54;90.07;100856.25;10491427;28;20044;-78
2022/11/14 22:29:14;;;;;;;3.63;2.28;;;;;;;6.58;89.97;100857.22;10491199;28;20037;-79
2022/11/14 22:34:34;;;;;;;3.25;2.17;;;;;;;6.59;90.01;100852.88;10507873;28;20040;-79
2022/11/14 22:39:54;;;;;;;6.15;2.63;;;;;;;6.62;89.99;100839.97;10515225;28;20043;-79
2022/11/14 22:45:14;;;;;;;4.55;1.90;;;;;;;6.66;89.92;100840.13;10530767;28;20114;-78
2022/11/14 22:50:34;;;;;;;4.60;2.08;;;;;;;6.71;89.97;100838.59;10531175;28;20047;-79
2022/11/14 22:55:55;;;;;;;5.75;3.25;;;;;;;6.76;89.96;100832.66;10529979;28;20459;-79
2022/11/14 23:01:19;;;;;;;;;;;;;;;6.76;89.95;100835.28;10514940;28;20036;-79
2022/11/14 23:06:40;;;;;;;5.30;2.05;;;;;;;6.77;90.01;100834.41;10530612;28;19970;-79
2022/11/14 23:12:00;;;;;;;6.20;3.30;;;;;;;6.78;89.84;100828.38;10530178;28;20060;-79
2022/11/14 23:17:20;;;;;;;2.75;1.67;;;;;;;6.79;89.74;100822.34;10529901;28;20039;-79
2022/11/14 23:22:40;;;;;;;5.88;2.30;;;;;;;6.82;89.84;100825.94;10481523;28;20409;-79
2022/11/14 23:28:00;;;;;;;6.35;3.25;;;;;;;6.72;89.82;100829.97;10488789;28;20040;-79
2022/11/14 23:33:20;;;;;;;4.45;2.70;;;;;;;6.75;89.94;100817.88;10511197;28;20040;-79
2022/11/14 23:38:41;;;;;;;5.45;2.50;;;;;;;6.67;89.76;100820.22;10529203;28;20106;-79
2022/11/14 23:44:01;;;;;;;4.82;2.55;;;;;;;6.55;89.93;100821.56;10529679;28;20086;-78
2022/11/14 23:49:21;;;;;;;5.10;2.03;;;;;;;6.44;89.59;100822.94;10528838;28;20032;-79
2022/11/14 23:54:40;;;;;;;3.07;1.93;;;;;;;6.32;90.10;100817.28;10480952;28;20624;-79
